30 septembre 2022

Temps Code Temps Temp. Vue Base cloud Vent METAR/SPECI
09:20
V
8 °C 8 km - Var Var 3 kt METAR ETWM 300720Z VRB03KT 8000 FEW015 08/08 Q1009 BLU+
08:50
M
6 °C 5 km - Var Var 1 kt METAR ETWM 300650Z VRB01KT 5000 BR FEW065 06/06 Q1009 WHT
08:20
L
4 °C 50 m - Var Var 1 kt METAR ETWM 300620Z VRB01KT 0050 FG FEW065 04/04 Q1009 RED
07:20
L
5 °C 50 m - Var Var 1 kt METAR ETWM 300520Z VRB01KT 0050 FG FEW065 05/04 Q1008 RED
07:04
L
4 °C 50 m - Var Var 1 kt METAR ETWM 300504Z VRB01KT 0050 FG FEW065 04/04 Q1008 RED
06:20
V
6 °C 10 km+ - Var Var 2 kt METAR ETWM 300420Z VRB02KT 9999 BCFG FEW065 06/05 Q1008 BLU+
05:20
L
5 °C 0 m - Var Var 1 kt METAR ETWM 300320Z AUTO VRB01KT //// // ////// 05/05 Q1007 ///
04:20
L
6 °C 0 m - Var 000° 0 kt METAR ETWM 300220Z AUTO 00000KT //// // ////// 06/06 Q1007 ///
03:20
L
8 °C 0 m - 220° 220° 3 kt METAR ETWM 300120Z AUTO 22003KT //// // ////// 08/07 Q1007 ///
02:20
L
8 °C 0 m - 250° 250° 2 kt METAR ETWM 300020Z AUTO 25002KT //// // ////// 08/07 Q1007 ///
01:20
L
8 °C 0 m - 230° 230° 2 kt METAR ETWM 292320Z AUTO 23002KT //// // ////// 08/08 Q1007 ///
00:20
L
9 °C 0 m - 250° 250° 2 kt METAR ETWM 292220Z AUTO 25002KT //// // ////// 09/08 Q1006 ///

29 septembre 2022

Temps Code Temps Temp. Vue Base cloud Vent METAR/SPECI
23:20
L
10 °C 0 m - 240° 240° 2 kt METAR ETWM 292120Z AUTO 24002KT //// // ////// 10/09 Q1006 ///
22:20
L
10 °C 0 m - 240° 240° 1 kt METAR ETWM 292020Z AUTO 24001KT //// // ////// 10/09 Q1006 ///
21:20
L
10 °C 0 m - 010° 010° 1 kt METAR ETWM 291920Z AUTO 01001KT //// // ////// 10/09 Q1005 ///
20:20
L
10 °C 0 m - 300° 300° 1 kt METAR ETWM 291820Z AUTO 30001KT //// // ////// 10/09 Q1005 ///
19:20
L
12 °C 0 m - 320° 320° 4 kt METAR ETWM 291720Z AUTO 32004KT //// // ////// 12/08 Q1004 ///
18:20
L
14 °C 0 m - 260° 260° 3 kt METAR ETWM 291620Z AUTO 26003KT //// // ////// 14/07 Q1004 ///
17:20
L
15 °C 0 m - 240° 240° 4 kt METAR ETWM 291520Z AUTO 24004KT //// // ////// 15/06 Q1003 ///
16:20
V
15 °C 10 km+ - 240° 240° 4 kt METAR ETWM 291420Z 24004KT 9999 FEW032 15/05 Q1002 BLU+
15:20
V
13 °C 10 km+ - 270° 270° 4 kt METAR ETWM 291320Z 27004KT 9999 FEW025 SCT230 13/07 Q1002 BLU+
14:20
V
14 °C 10 km+ - 200° 200° 5 kt METAR ETWM 291220Z 20005KT 9999 FEW024 SCT230 14/07 Q1002 BLU+
13:20
V
13 °C 10 km+ - 230° 230° 5 kt METAR ETWM 291120Z 23005KT 9999 FEW020 SCT240 13/08 Q1002 BLU+
12:20
V
11 °C 10 km+ - 220° 220° 4 kt METAR ETWM 291020Z 22004KT 9999 FEW006 SCT240 11/09 Q1002 BLU+
11:37
M
9 °C 6 km - Var Var 2 kt METAR ETWM 290937Z VRB02KT 6000 SCT003 09/08 Q1002 WHT
11:20
L
8 °C 3,6 km 200 ft 200° 200° 4 kt METAR ETWM 290920Z 20004KT 3600 BR BKN002 08/08 Q1002 AMB
10:49
L
7 °C 1,6 km 100 ft 240° 240° 4 kt METAR ETWM 290849Z 24004KT 1600 BCFG BR BKN001 07/07 Q1002 RED
10:20
L
7 °C 500 m - 180° 180° 4 kt METAR ETWM 290820Z 18004KT 0500 FG BKN000 07/07 Q1001 RED
09:20
L
6 °C 400 m - Var Var 2 kt METAR ETWM 290720Z VRB02KT 0400 FG 06/06 Q1001 RED
08:20
L
4 °C 250 m - Var Var 1 kt METAR ETWM 290620Z VRB01KT 0250 FG 04/04 Q1000 RED
07:20
L
2 °C 250 m - Var 000° 0 kt METAR ETWM 290520Z 00000KT 0250 FG VV000 02/02 Q1000 RED
06:50
L
2 °C 250 m - 030° 030° 1 kt METAR ETWM 290450Z 03001KT 0250 FG VV000 02/02 Q1000 RED
06:20
L
2 °C 0 m - Var 000° 0 kt METAR ETWM 290420Z AUTO 00000KT //// // ////// 02/02 Q1000 ///
05:20
L
2 °C 0 m - Var 000° 0 kt METAR ETWM 290320Z AUTO 00000KT //// // ////// 02/02 Q0999 ///
04:20
L
3 °C 0 m - Var 000° 0 kt METAR ETWM 290220Z AUTO 00000KT //// // ////// 03/02 Q0999 ///
03:20
L
3 °C 0 m - 200° 200° 1 kt METAR ETWM 290120Z AUTO 20001KT //// // ////// 03/03 Q0999 ///
02:20
L
4 °C 0 m - Var 000° 0 kt METAR ETWM 290020Z AUTO 00000KT //// // ////// 04/03 Q0999 ///
01:20
L
4 °C 0 m - 180° 180° 1 kt METAR ETWM 282320Z AUTO 18001KT //// // ////// 04/04 Q0999 ///
00:20
L
4 °C 0 m - 190° 190° 1 kt METAR ETWM 282220Z AUTO 19001KT //// // ////// 04/04 Q0999 ///

28 septembre 2022

Temps Code Temps Temp. Vue Base cloud Vent METAR/SPECI
23:20
L
5 °C 0 m - Var 000° 0 kt METAR ETWM 282120Z AUTO 00000KT //// // ////// 05/05 Q0998 ///
22:20
L
6 °C 0 m - Var 000° 0 kt METAR ETWM 282020Z AUTO 00000KT //// // ////// 06/06 Q0998 ///
21:20
L
7 °C 0 m - Var Var 1 kt METAR ETWM 281920Z AUTO VRB01KT //// // ////// 07/07 Q0998 ///
20:20
L
8 °C 0 m - 200° 200° 1 kt METAR ETWM 281820Z AUTO 20001KT //// // ////// 08/07 Q0997 ///
19:20
L
9 °C 0 m - 270° 270° 1 kt METAR ETWM 281720Z AUTO 27001KT //// // ////// 09/08 Q0997 ///
18:20
L
10 °C 0 m - 300° 300° 3 kt METAR ETWM 281620Z AUTO 30003KT //// // ////// 10/07 Q0997 ///
17:20
L
13 °C 0 m - 240° 240° 4 kt METAR ETWM 281520Z AUTO 24004KT //// // ////// 13/06 Q0996 ///
16:20
V
14 °C 10 km+ - Var 000° 0 kt METAR ETWM 281420Z 00000KT 9999 FEW033 14/06 Q0996 BLU+
15:20
V
13 °C 10 km+ - 300° 300° 2 kt METAR ETWM 281320Z 30002KT 9999 FEW030 13/05 Q0996 BLU+
14:20
V
12 °C 10 km+ - Var Var 2 kt METAR ETWM 281220Z VRB02KT 9999 FEW020 SCT220 12/07 Q0996 BLU+
13:20
V
11 °C 10 km+ - 240° 240° 3 kt METAR ETWM 281120Z 24003KT 9999 FEW018 11/06 Q0996 BLU+
12:20
V
11 °C 10 km+ - 250° 250° 5 kt METAR ETWM 281020Z 25005KT 9999 FEW012 11/07 Q0996 BLU+
11:20
V
9 °C 10 km+ - 240° 240° 4 kt METAR ETWM 280920Z 24004KT 9999 FEW009 SCT140 09/07 Q0996 BLU+
10:50
V
9 °C 10 km+ - 170° 170° 4 kt METAR ETWM 280850Z 17004KT 9999 SCT007 09/06 Q0996 BLU+
10:20
I
8 °C 9 km 600 ft 250° 250° 3 kt METAR ETWM 280820Z 25003KT 9000 FEW003 BKN006 08/07 Q0995 YLO
09:20
I
8 °C 6 km 500 ft Var Var 2 kt METAR ETWM 280720Z VRB02KT 6000 FEW002 BKN005 08/07 Q0995 YLO
Données plus anciennes

Nous et des tiers suivons ton comportement sur Internet sur notre site Web à l'aide de cookies. Si tu continues, nous supposons que tu acceptes notre politique en matière de cookies. Apprendre plus